Time;durP1;ratioP1;P1;durP2;ratioP2;P2;SDS_P1;SDS_P2;PMS_P1;PMS_P2;Temp;Humidity;BMP_temperature;BMP_pressure;BME280_temperature;BME280_humidity;BME280_pressure;Samples;Min_cycle;Max_cycle;Signal;HPM_P1;HPM_P2
2021/03/23 00:00:21;;;;;;;6.93;3.03;;;5.70;99.90;;;;;;4964938;28;20199;-72
2021/03/23 00:02:49;;;;;;;5.93;3.00;;;5.80;99.90;;;;;;4970167;28;20324;-72
2021/03/23 00:05:17;;;;;;;7.03;3.20;;;5.80;99.90;;;;;;4968237;28;20197;-72
2021/03/23 00:07:43;;;;;;;7.57;3.17;;;5.80;99.90;;;;;;4962455;28;20219;-73
2021/03/23 00:10:11;;;;;;;5.07;3.03;;;5.60;99.90;;;;;;4966396;28;20211;-72
2021/03/23 00:12:39;;;;;;;5.73;3.30;;;5.70;99.90;;;;;;4964894;28;20200;-71
2021/03/23 00:15:09;;;;;;;5.30;3.20;;;5.70;99.90;;;;;;4957228;28;20289;-72
2021/03/23 00:17:37;;;;;;;6.70;3.00;;;5.60;99.90;;;;;;4953107;28;20202;-72
2021/03/23 00:20:05;;;;;;;28.80;7.60;;;5.60;99.90;;;;;;4956906;28;20189;-71
2021/03/23 00:22:33;;;;;;;65.13;12.27;;;5.60;99.90;;;;;;4952366;28;20689;-71
2021/03/23 00:25:00;;;;;;;69.40;13.73;;;5.60;99.90;;;;;;4950893;28;20228;-72
2021/03/23 00:27:27;;;;;;;19.50;5.60;;;5.60;99.90;;;;;;4953601;28;20205;-72
2021/03/23 00:29:54;;;;;;;11.17;3.50;;;5.60;99.90;;;;;;4956349;28;20604;-71
2021/03/23 00:32:21;;;;;;;6.87;3.23;;;5.60;99.90;;;;;;4951411;28;20229;-72
2021/03/23 00:34:47;;;;;;;6.60;2.80;;;5.60;99.90;;;;;;4951180;28;20681;-70
2021/03/23 00:37:14;;;;;;;9.33;3.33;;;5.70;99.90;;;;;;4949803;28;20202;-72
2021/03/23 00:39:41;;;;;;;6.80;3.00;;;5.70;99.90;;;;;;4956854;28;20355;-71
2021/03/23 00:42:08;;;;;;;5.20;2.93;;;5.70;99.90;;;;;;4950271;28;20202;-72
2021/03/23 00:44:35;;;;;;;6.47;3.47;;;5.70;99.90;;;;;;4945851;28;20221;-72
2021/03/23 00:47:03;;;;;;;7.17;3.03;;;5.70;99.90;;;;;;4945284;28;20185;-72
2021/03/23 00:49:29;;;;;;;7.03;2.93;;;5.60;99.90;;;;;;4970677;28;20235;-72
2021/03/23 00:51:56;;;;;;;5.70;3.33;;;5.70;99.90;;;;;;4963979;28;20237;-72
2021/03/23 00:54:23;;;;;;;7.60;3.23;;;5.70;99.90;;;;;;4951480;28;20196;-71
2021/03/23 00:56:49;;;;;;;7.43;3.50;;;5.60;99.90;;;;;;4966661;28;20248;-71
2021/03/23 00:59:16;;;;;;;8.20;3.47;;;5.60;99.90;;;;;;4968562;28;20302;-72
2021/03/23 01:01:42;;;;;;;7.17;3.50;;;5.60;99.90;;;;;;4965619;28;20199;-72
2021/03/23 01:04:09;;;;;;;9.33;3.93;;;5.50;99.90;;;;;;4968588;28;20224;-72
2021/03/23 01:06:36;;;;;;;7.87;3.40;;;5.50;99.90;;;;;;4961335;28;20238;-73
2021/03/23 01:09:03;;;;;;;7.43;3.10;;;5.50;99.90;;;;;;4967250;28;20200;-72
2021/03/23 01:11:30;;;;;;;6.43;3.40;;;5.50;99.90;;;;;;4964965;28;20205;-72
2021/03/23 01:13:58;;;;;;;11.17;3.57;;;5.50;99.90;;;;;;4964183;28;20287;-72
2021/03/23 01:16:25;;;;;;;7.57;3.33;;;5.40;99.90;;;;;;4957760;28;20283;-72
2021/03/23 01:18:52;;;;;;;7.07;3.43;;;5.40;99.90;;;;;;4954528;28;20288;-72
2021/03/23 01:21:19;;;;;;;7.40;3.40;;;5.40;99.90;;;;;;4953879;28;20784;-72
2021/03/23 01:23:46;;;;;;;4.67;2.90;;;5.40;99.90;;;;;;4962018;28;20211;-73
2021/03/23 01:26:13;;;;;;;26.70;5.93;;;5.60;99.90;;;;;;4955245;28;20200;-73
2021/03/23 01:28:39;;;;;;;22.10;5.63;;;5.40;99.90;;;;;;4961275;28;20340;-72
2021/03/23 01:31:06;;;;;;;17.07;5.33;;;5.40;99.90;;;;;;4958938;28;20229;-72
2021/03/23 01:33:32;;;;;;;10.00;4.03;;;5.40;99.90;;;;;;4958907;28;20230;-73
2021/03/23 01:35:58;;;;;;;6.40;3.63;;;5.30;99.90;;;;;;4950425;28;20690;-71
2021/03/23 01:38:26;;;;;;;8.03;3.53;;;5.40;99.90;;;;;;4960203;28;20196;-72
2021/03/23 01:40:52;;;;;;;6.03;3.07;;;5.30;99.90;;;;;;4941062;28;20198;-71
2021/03/23 01:43:23;;;;;;;7.60;3.30;;;5.30;99.90;;;;;;4955878;28;20299;-71
2021/03/23 01:45:49;;;;;;;8.97;4.37;;;5.30;99.90;;;;;;4946322;29;20681;-72
2021/03/23 01:48:19;;;;;;;8.77;3.60;;;5.20;99.90;;;;;;4966215;28;20201;-72
2021/03/23 01:50:51;;;;;;;9.13;3.90;;;5.20;99.90;;;;;;4970017;28;20216;-71
2021/03/23 01:53:23;;;;;;;7.20;3.47;;;5.20;99.90;;;;;;4955561;28;20641;-72
2021/03/23 01:55:51;;;;;;;5.73;3.50;;;5.20;99.90;;;;;;4961162;28;20298;-72
2021/03/23 01:58:20;;;;;;;6.67;3.67;;;5.10;99.90;;;;;;4966176;28;20228;-72
2021/03/23 02:00:48;;;;;;;5.63;3.23;;;5.10;99.90;;;;;;4969658;28;20430;-72
2021/03/23 02:03:16;;;;;;;5.93;3.43;;;5.10;99.90;;;;;;4963916;28;20204;-72
2021/03/23 02:05:42;;;;;;;5.30;3.77;;;5.10;99.90;;;;;;4967119;28;20858;-72
2021/03/23 02:08:09;;;;;;;5.60;3.00;;;5.10;99.90;;;;;;4961023;28;20628;-72
2021/03/23 02:10:36;;;;;;;4.60;3.00;;;5.10;99.90;;;;;;4964713;28;20211;-72
2021/03/23 02:13:05;;;;;;;7.33;3.03;;;5.10;99.90;;;;;;4959361;28;20348;-72
2021/03/23 02:15:32;;;;;;;6.20;3.07;;;5.10;99.90;;;;;;4965149;28;20299;-72
2021/03/23 02:18:12;;;;;;;9.83;3.73;;;5.00;99.90;;;;;;4942199;28;20196;-72
2021/03/23 02:20:56;;;;;;;7.17;3.77;;;5.10;99.90;;;;;;4956137;28;20617;-72
2021/03/23 02:23:24;;;;;;;9.10;3.97;;;5.00;99.90;;;;;;4946273;28;20278;-72
2021/03/23 02:25:51;;;;;;;8.63;4.47;;;5.10;99.90;;;;;;4956240;28;20269;-73
2021/03/23 02:28:17;;;;;;;8.80;4.20;;;5.00;99.90;;;;;;4945303;28;20197;-72
2021/03/23 02:30:46;;;;;;;11.77;3.90;;;5.00;99.90;;;;;;4955555;28;20248;-72
2021/03/23 02:33:13;;;;;;;8.57;4.27;;;5.00;99.90;;;;;;4960406;28;20303;-72
2021/03/23 02:35:39;;;;;;;6.60;3.40;;;4.90;99.90;;;;;;4958029;28;20597;-72
2021/03/23 02:38:07;;;;;;;4.07;2.80;;;5.00;99.90;;;;;;4959413;28;20637;-73
2021/03/23 02:40:34;;;;;;;5.07;3.17;;;5.00;99.90;;;;;;4950944;28;20194;-72
2021/03/23 02:43:01;;;;;;;5.80;3.23;;;5.00;99.90;;;;;;4957675;28;20212;-72
2021/03/23 02:45:30;;;;;;;7.67;3.80;;;5.00;99.90;;;;;;4951519;28;20193;-72
2021/03/23 02:47:57;;;;;;;6.40;2.80;;;5.00;99.90;;;;;;4951749;28;20699;-72
2021/03/23 02:50:23;;;;;;;5.93;3.33;;;5.00;99.90;;;;;;4949090;28;20271;-72
2021/03/23 02:52:50;;;;;;;5.27;3.30;;;5.00;99.90;;;;;;4958119;28;20197;-72
2021/03/23 02:55:17;;;;;;;7.47;3.23;;;5.00;99.90;;;;;;4949890;28;20200;-72
2021/03/23 02:57:43;;;;;;;8.73;3.00;;;5.00;99.90;;;;;;4967445;28;20247;-72
2021/03/23 03:00:13;;;;;;;8.07;3.37;;;5.00;99.90;;;;;;4962690;28;20195;-72
2021/03/23 03:02:40;;;;;;;8.50;3.13;;;5.00;99.90;;;;;;4954107;28;20208;-72
2021/03/23 03:05:08;;;;;;;8.60;3.67;;;5.00;99.90;;;;;;4961148;28;20247;-72
2021/03/23 03:07:34;;;;;;;5.07;2.90;;;5.00;99.90;;;;;;4962962;28;20191;-72
2021/03/23 03:10:01;;;;;;;8.60;3.40;;;5.00;99.90;;;;;;4951782;28;20378;-72
2021/03/23 03:12:28;;;;;;;4.03;2.90;;;4.90;99.90;;;;;;4962739;28;20201;-73
2021/03/23 03:14:54;;;;;;;6.27;3.27;;;5.00;99.90;;;;;;4957766;28;20708;-72
2021/03/23 03:17:21;;;;;;;3.27;2.40;;;5.00;99.90;;;;;;4962397;28;20236;-72
2021/03/23 03:19:47;;;;;;;5.03;3.27;;;5.00;99.90;;;;;;4953427;28;20200;-72
2021/03/23 03:22:14;;;;;;;5.23;2.80;;;4.90;99.90;;;;;;4952077;28;20208;-72
2021/03/23 03:24:41;;;;;;;5.70;3.07;;;4.90;99.90;;;;;;4959347;28;20280;-72
2021/03/23 03:27:08;;;;;;;5.80;3.43;;;4.90;99.90;;;;;;4962185;28;20279;-72
2021/03/23 03:29:35;;;;;;;5.10;2.90;;;4.90;99.90;;;;;;4952875;28;20361;-72
2021/03/23 03:32:02;;;;;;;5.20;3.30;;;4.90;99.90;;;;;;4958932;28;20212;-72
2021/03/23 03:34:28;;;;;;;5.03;2.70;;;4.90;99.90;;;;;;4951251;28;20436;-71
2021/03/23 03:36:55;;;;;;;4.60;2.90;;;4.90;99.90;;;;;;4955444;28;20300;-71
2021/03/23 03:39:21;;;;;;;3.40;2.17;;;4.90;99.90;;;;;;4944205;28;20288;-72
2021/03/23 03:41:48;;;;;;;2.40;1.80;;;4.90;99.90;;;;;;4953862;28;20296;-72
2021/03/23 03:44:14;;;;;;;2.90;2.20;;;5.00;99.90;;;;;;4943374;28;20200;-72
2021/03/23 03:46:42;;;;;;;2.80;2.10;;;5.00;99.90;;;;;;4945631;28;20197;-72
2021/03/23 03:49:08;;;;;;;1.87;1.67;;;5.00;99.90;;;;;;4971863;28;20542;-72
2021/03/23 03:51:34;;;;;;;2.97;2.13;;;5.00;99.90;;;;;;4967851;28;20684;-72
2021/03/23 03:54:01;;;;;;;3.93;2.00;;;5.00;99.90;;;;;;4942544;28;20224;-71
2021/03/23 03:56:28;;;;;;;2.67;2.00;;;5.00;99.90;;;;;;4959973;28;20701;-72
2021/03/23 03:58:56;;;;;;;3.77;2.33;;;5.00;99.90;;;;;;4971243;28;20624;-72
2021/03/23 04:01:22;;;;;;;4.30;2.77;;;5.00;99.90;;;;;;4958337;28;20367;-71
2021/03/23 04:03:50;;;;;;;4.93;2.97;;;4.90;99.90;;;;;;4971433;28;20200;-72
2021/03/23 04:06:16;;;;;;;4.30;2.90;;;4.90;99.90;;;;;;4962547;28;20193;-71
2021/03/23 04:08:43;;;;;;;4.50;2.83;;;4.90;99.90;;;;;;4968795;28;20628;-72
2021/03/23 04:11:11;;;;;;;6.10;2.30;;;5.00;99.90;;;;;;4959180;28;20220;-72
2021/03/23 04:13:37;;;;;;;3.80;2.53;;;4.90;99.90;;;;;;4954290;28;20208;-72
2021/03/23 04:16:04;;;;;;;2.30;2.10;;;4.90;99.90;;;;;;4961731;28;20218;-72
2021/03/23 04:18:31;;;;;;;3.20;2.40;;;4.90;99.90;;;;;;4937664;29;20757;-72
2021/03/23 04:21:00;;;;;;;4.13;2.47;;;5.00;99.90;;;;;;4957805;28;20209;-71
2021/03/23 04:23:29;;;;;;;4.10;2.20;;;5.00;99.90;;;;;;4946958;28;20212;-72
2021/03/23 04:25:56;;;;;;;4.43;2.97;;;5.00;99.90;;;;;;4958514;28;20212;-72
2021/03/23 04:28:23;;;;;;;6.33;3.33;;;4.90;99.90;;;;;;4965914;28;20205;-72
2021/03/23 04:30:50;;;;;;;6.57;2.97;;;4.90;99.90;;;;;;4953683;28;20616;-72
2021/03/23 04:33:20;;;;;;;3.87;2.57;;;4.90;99.90;;;;;;4964833;28;20200;-72
2021/03/23 04:35:50;;;;;;;4.57;2.77;;;4.90;99.90;;;;;;4959896;28;20291;-71
2021/03/23 04:38:19;;;;;;;6.73;2.80;;;4.90;99.90;;;;;;4952765;28;20605;-72
2021/03/23 04:40:47;;;;;;;3.33;2.57;;;4.90;99.90;;;;;;4943457;28;20205;-72
2021/03/23 04:43:19;;;;;;;2.87;2.13;;;4.90;99.90;;;;;;4952181;28;20200;-71
2021/03/23 04:45:46;;;;;;;3.30;2.50;;;4.90;99.90;;;;;;4940588;28;20289;-72
2021/03/23 04:48:14;;;;;;;7.70;3.27;;;4.90;99.90;;;;;;4963299;28;20192;-72
2021/03/23 04:50:40;;;;;;;4.50;2.83;;;4.90;99.90;;;;;;4952528;28;20204;-71
2021/03/23 04:53:07;;;;;;;4.10;2.47;;;4.90;99.90;;;;;;4957038;28;20201;-72
2021/03/23 04:55:34;;;;;;;3.97;2.33;;;4.90;99.90;;;;;;4970145;28;20287;-71
2021/03/23 04:58:00;;;;;;;3.70;2.40;;;4.90;99.90;;;;;;4968180;28;20294;-71
2021/03/23 05:00:27;;;;;;;6.60;2.63;;;4.90;99.90;;;;;;4967205;28;20251;-71
2021/03/23 05:02:53;;;;;;;4.23;2.90;;;5.00;99.90;;;;;;4963625;28;20208;-71
2021/03/23 05:05:20;;;;;;;3.97;3.10;;;4.90;99.90;;;;;;4968585;28;20211;-72
2021/03/23 05:07:46;;;;;;;4.87;2.33;;;4.90;99.90;;;;;;4961451;28;20214;-72
2021/03/23 05:10:13;;;;;;;3.43;2.60;;;4.90;99.90;;;;;;4966730;28;20311;-72
2021/03/23 05:12:41;;;;;;;7.37;3.20;;;5.00;99.90;;;;;;4958895;28;20211;-72
2021/03/23 05:15:11;;;;;;;4.30;2.90;;;5.00;99.90;;;;;;4954822;28;20288;-72
2021/03/23 05:17:37;;;;;;;4.63;2.53;;;5.00;99.90;;;;;;4952666;28;20264;-72
2021/03/23 05:20:06;;;;;;;6.43;3.07;;;5.10;99.90;;;;;;4951963;28;20204;-72
2021/03/23 05:22:33;;;;;;;3.43;2.53;;;5.20;99.90;;;;;;4947054;28;20194;-72
2021/03/23 05:24:59;;;;;;;3.17;2.60;;;5.30;99.90;;;;;;4954614;28;20211;-72
2021/03/23 05:27:26;;;;;;;5.73;3.10;;;5.40;99.90;;;;;;4955117;28;20191;-71
2021/03/23 05:29:53;;;;;;;4.27;2.90;;;5.40;99.90;;;;;;4956270;28;20228;-71
2021/03/23 05:32:20;;;;;;;8.00;3.27;;;5.50;99.90;;;;;;4953210;28;20201;-72
2021/03/23 05:34:47;;;;;;;11.07;3.90;;;5.60;99.90;;;;;;4953146;28;20226;-71
2021/03/23 05:37:13;;;;;;;6.27;2.80;;;5.60;99.90;;;;;;4944423;28;20590;-72
2021/03/23 05:39:41;;;;;;;4.10;2.57;;;5.70;99.90;;;;;;4948781;28;20200;-72
2021/03/23 05:42:14;;;;;;;5.17;3.33;;;5.80;99.90;;;;;;4944007;28;20296;-73
2021/03/23 05:45:02;;;;;;;5.17;3.20;;;5.80;99.90;;;;;;4948828;28;20205;-72
2021/03/23 05:47:34;;;;;;;6.63;3.23;;;5.90;99.90;;;;;;4950015;28;20196;-71
2021/03/23 05:50:10;;;;;;;5.83;2.40;;;5.90;99.90;;;;;;4958601;28;20650;-71
2021/03/23 05:52:41;;;;;;;6.57;2.90;;;6.00;99.90;;;;;;4961281;28;20581;-72
2021/03/23 05:55:23;;;;;;;5.70;3.00;;;6.10;99.90;;;;;;4966830;28;20211;-71
2021/03/23 05:57:52;;;;;;;4.83;3.33;;;6.20;99.90;;;;;;4967416;28;20231;-72
2021/03/23 06:00:25;;;;;;;4.53;2.67;;;6.20;99.90;;;;;;4946843;28;20196;-72
2021/03/23 06:02:57;;;;;;;6.13;2.90;;;6.30;99.90;;;;;;4966341;28;20216;-72
2021/03/23 06:05:41;;;;;;;3.00;2.20;;;6.40;99.90;;;;;;4966539;28;20196;-72
2021/03/23 06:08:20;;;;;;;4.33;2.50;;;6.50;99.90;;;;;;4964096;28;20292;-71
2021/03/23 06:10:47;;;;;;;3.87;2.90;;;6.70;99.90;;;;;;4966927;28;20266;-71
2021/03/23 06:13:24;;;;;;;5.77;3.00;;;6.80;99.90;;;;;;4960634;28;20204;-71
2021/03/23 06:16:05;;;;;;;4.97;2.57;;;6.90;99.90;;;;;;4959166;28;20219;-72
2021/03/23 06:18:39;;;;;;;6.70;3.43;;;7.00;99.90;;;;;;4942987;28;20224;-72
2021/03/23 06:21:10;;;;;;;5.53;3.40;;;7.10;99.90;;;;;;4956497;28;20206;-72
2021/03/23 06:23:50;;;;;;;7.63;3.73;;;7.20;99.90;;;;;;4966322;28;20243;-72
2021/03/23 06:26:28;;;;;;;6.97;3.80;;;7.20;99.90;;;;;;4955742;28;20215;-72
2021/03/23 06:29:06;;;;;;;6.07;3.60;;;7.30;99.90;;;;;;4960536;28;20611;-73
2021/03/23 06:31:57;;;;;;;4.53;2.90;;;7.40;99.90;;;;;;4960877;28;20288;-72
2021/03/23 06:34:27;;;;;;;4.87;3.03;;;7.50;99.90;;;;;;4893524;29;20221;-72
2021/03/23 06:36:55;;;;;;;8.93;3.43;;;7.60;99.90;;;;;;4896413;29;20236;-72
2021/03/23 06:39:22;;;;;;;6.60;3.30;;;7.70;99.90;;;;;;4892580;29;20250;-72
2021/03/23 06:41:55;;;;;;;7.27;3.67;;;7.90;99.90;;;;;;4885636;29;20493;-72
2021/03/23 06:44:28;;;;;;;4.73;3.03;;;8.00;99.90;;;;;;4882748;29;20240;-72
2021/03/23 06:46:57;;;;;;;6.80;3.77;;;8.10;99.90;;;;;;4883068;29;20245;-72
2021/03/23 06:49:30;;;;;;;7.30;3.97;;;8.20;99.90;;;;;;4875978;29;20205;-71
2021/03/23 06:52:05;;;;;;;4.90;3.83;;;8.20;99.90;;;;;;4899965;29;20738;-72
2021/03/23 06:54:34;;;;;;;8.83;4.17;;;8.20;99.90;;;;;;4897247;29;20202;-71
2021/03/23 06:57:07;;;;;;;6.83;3.97;;;8.30;99.90;;;;;;4905082;29;20220;-71
2021/03/23 06:59:45;;;;;;;7.27;3.90;;;8.40;99.90;;;;;;4907538;29;20225;-73
2021/03/23 07:02:32;;;;;;;5.30;3.63;;;8.40;99.90;;;;;;4895037;29;20638;-72
2021/03/23 07:05:21;;;;;;;5.73;3.43;;;8.50;99.90;;;;;;4905985;29;20303;-72
2021/03/23 07:07:57;;;;;;;6.97;4.07;;;8.70;99.90;;;;;;4884057;29;20216;-72
2021/03/23 07:10:26;;;;;;;8.60;4.10;;;8.80;99.90;;;;;;4898162;28;20244;-72
2021/03/23 07:12:53;;;;;;;7.93;4.30;;;8.90;99.90;;;;;;4964535;28;20317;-72
2021/03/23 07:15:23;;;;;;;9.10;4.93;;;9.10;99.90;;;;;;4967874;28;20204;-72
2021/03/23 07:17:53;;;;;;;9.33;4.60;;;9.30;99.90;;;;;;4962326;28;20228;-71
2021/03/23 07:20:42;;;;;;;9.90;4.43;;;9.50;99.90;;;;;;4962806;28;20204;-72
2021/03/23 07:23:28;;;;;;;7.47;4.33;;;9.60;99.90;;;;;;4959162;28;20677;-72
2021/03/23 07:25:56;;;;;;;5.90;3.97;;;9.80;99.90;;;;;;4956630;28;20291;-72
2021/03/23 07:28:28;;;;;;;6.67;4.00;;;9.80;99.90;;;;;;4966665;28;20527;-72
2021/03/23 07:31:06;;;;;;;7.33;4.30;;;9.80;99.90;;;;;;4959496;28;20240;-72
2021/03/23 07:33:43;;;;;;;7.30;4.33;;;9.80;99.90;;;;;;4948150;28;20196;-72
2021/03/23 07:36:13;;;;;;;8.23;4.23;;;9.80;99.90;;;;;;4959300;28;20196;-72
2021/03/23 07:38:45;;;;;;;8.73;4.80;;;9.80;99.90;;;;;;4959176;28;20229;-72
2021/03/23 07:41:20;;;;;;;6.43;3.77;;;9.90;99.90;;;;;;4969400;28;20237;-72
2021/03/23 07:43:52;;;;;;;11.37;4.90;;;10.00;99.90;;;;;;4954112;28;20208;-72
2021/03/23 07:46:24;;;;;;;8.30;4.23;;;10.30;99.90;;;;;;4942804;28;20198;-72
2021/03/23 07:48:56;;;;;;;7.43;4.73;;;10.70;99.90;;;;;;4940208;28;20195;-72
2021/03/23 07:51:32;;;;;;;7.67;4.57;;;10.90;99.90;;;;;;4958528;28;20213;-72
2021/03/23 07:54:19;;;;;;;6.83;4.17;;;11.00;99.90;;;;;;4954088;28;20205;-71
2021/03/23 07:57:06;;;;;;;8.90;4.47;;;11.20;99.90;;;;;;4953154;28;20230;-71
2021/03/23 07:59:47;;;;;;;9.07;4.10;;;11.30;99.90;;;;;;4941768;29;20203;-73
2021/03/23 08:02:37;;;;;;;8.03;4.20;;;11.40;99.90;;;;;;4951844;28;20207;-72
2021/03/23 08:05:16;;;;;;;9.33;4.07;;;11.60;99.90;;;;;;4953776;28;20227;-71
2021/03/23 08:07:49;;;;;;;12.23;4.50;;;11.80;99.90;;;;;;4955349;28;20687;-72
2021/03/23 08:10:22;;;;;;;4.77;3.30;;;12.00;99.90;;;;;;4946803;28;20192;-72
2021/03/23 08:13:12;;;;;;;4.63;3.23;;;12.60;99.90;;;;;;4931227;29;20206;-72
2021/03/23 08:16:11;;;;;;;6.47;3.57;;;13.20;99.90;;;;;;4944644;29;20781;-72
2021/03/23 08:19:02;;;;;;;5.83;3.17;;;13.70;99.90;;;;;;4905687;29;20226;-71
2021/03/23 08:21:57;;;;;;;4.37;2.27;;;15.20;99.90;;;;;;4895757;29;20208;-71
2021/03/23 08:24:35;;;;;;;2.77;2.33;;;18.00;95.40;;;;;;4889889;29;20212;-72
2021/03/23 08:27:32;;;;;;;3.47;2.27;;;20.60;84.70;;;;;;4882675;29;20784;-72
2021/03/23 08:30:11;;;;;;;6.87;3.13;;;22.60;74.20;;;;;;4831033;29;20342;-72
2021/03/23 08:32:43;;;;;;;5.23;2.53;;;24.40;61.60;;;;;;4842692;29;20217;-73
2021/03/23 08:35:34;;;;;;;4.40;2.77;;;25.00;58.10;;;;;;4845544;29;20236;-73
2021/03/23 08:38:18;;;;;;;6.15;2.63;;;25.30;56.00;;;;;;4826071;29;20285;-72
2021/03/23 08:40:55;;;;;;;3.58;2.13;;;25.70;52.60;;;;;;4845439;29;20217;-73
2021/03/23 08:43:38;;;;;;;3.90;2.72;;;25.30;52.50;;;;;;4829657;29;20219;-73
2021/03/23 08:46:15;;;;;;;3.70;2.08;;;25.10;50.80;;;;;;4850340;29;20827;-74
2021/03/23 08:48:48;;;;;;;2.55;1.90;;;25.30;51.20;;;;;;4844942;29;20240;-73
2021/03/23 08:51:20;;;;;;;5.15;1.95;;;25.60;50.80;;;;;;4831970;29;20212;-75
2021/03/23 08:53:56;;;;;;;2.80;1.70;;;26.20;50.50;;;;;;4853474;29;20475;-73
2021/03/23 08:56:58;;;;;;;2.83;2.00;;;27.50;48.60;;;;;;4850148;29;20219;-72
2021/03/23 08:59:57;;;;;;;3.65;1.88;;;28.30;46.20;;;;;;4870285;29;20359;-71
2021/03/23 09:02:48;;;;;;;5.90;2.40;;;29.20;44.10;;;;;;4864240;29;20204;-73
2021/03/23 09:05:44;;;;;;;51.90;10.32;;;29.90;41.60;;;;;;4869886;29;20204;-74
2021/03/23 09:08:19;;;;;;;7.43;3.42;;;30.30;39.70;;;;;;4886285;29;20272;-74
2021/03/23 09:10:52;;;;;;;7.13;2.67;;;30.60;38.40;;;;;;4912313;29;20206;-73
2021/03/23 09:13:23;;;;;;;3.33;2.05;;;30.70;38.10;;;;;;4907051;29;20302;-73
2021/03/23 09:15:52;;;;;;;3.50;2.00;;;31.00;38.10;;;;;;4901601;29;20210;-74
2021/03/23 09:18:28;;;;;;;3.15;2.13;;;31.70;37.70;;;;;;4897183;29;20286;-73
2021/03/23 09:21:07;;;;;;;4.05;1.65;;;32.50;36.90;;;;;;4897366;29;20237;-72
2021/03/23 09:23:57;;;;;;;1.70;1.60;;;33.30;36.60;;;;;;4900765;29;20302;-73
2021/03/23 09:26:46;;;;;;;3.70;2.00;;;34.10;36.00;;;;;;4899781;29;20219;-74
2021/03/23 09:29:40;;;;;;;2.95;1.85;;;34.90;34.70;;;;;;4901690;29;20568;-73
2021/03/23 09:32:11;;;;;;;2.10;1.55;;;35.30;33.50;;;;;;4901832;29;20233;-74
2021/03/23 09:35:14;;;;;;;2.38;1.60;;;35.70;33.00;;;;;;4892686;29;20211;-73
2021/03/23 09:37:47;;;;;;;4.70;2.58;;;35.90;31.90;;;;;;4891202;29;20393;-73
2021/03/23 09:40:57;;;;;;;2.08;1.77;;;36.00;31.00;;;;;;4890364;29;20656;-74
2021/03/23 09:43:36;;;;;;;2.38;1.65;;;35.90;31.00;;;;;;4858575;29;20212;-76
2021/03/23 09:46:35;;;;;;;2.78;1.50;;;36.20;30.70;;;;;;4896769;29;20211;-74
2021/03/23 09:49:15;;;;;;;15.40;2.90;;;36.50;30.60;;;;;;4831763;29;20206;-73
2021/03/23 09:51:49;;;;;;;8.98;2.50;;;36.80;30.10;;;;;;4829001;29;20777;-75
2021/03/23 09:54:26;;;;;;;4.97;2.10;;;36.90;29.90;;;;;;4831613;29;20220;-73
2021/03/23 09:56:54;;;;;;;5.25;2.10;;;37.10;29.90;;;;;;4832221;29;20243;-74
2021/03/23 09:59:26;;;;;;;8.77;2.33;;;37.40;29.50;;;;;;4833259;29;20209;-73
2021/03/23 10:01:57;;;;;;;4.95;2.60;;;37.60;29.20;;;;;;4828391;29;20228;-73
2021/03/23 10:04:33;;;;;;;3.85;1.92;;;37.80;28.70;;;;;;4825007;29;20261;-73
2021/03/23 10:07:01;;;;;;;2.50;1.85;;;37.70;28.60;;;;;;4826797;29;20316;-73
2021/03/23 10:09:30;;;;;;;5.10;1.80;;;37.80;28.40;;;;;;4826040;29;20202;-73
2021/03/23 10:11:58;;;;;;;2.75;1.80;;;37.80;28.10;;;;;;4832392;29;20224;-73
2021/03/23 10:14:35;;;;;;;7.43;2.30;;;37.70;27.90;;;;;;4822569;29;20206;-73
2021/03/23 10:17:22;;;;;;;2.55;1.70;;;37.60;27.70;;;;;;4826304;29;20225;-73
2021/03/23 10:19:50;;;;;;;1.83;1.60;;;36.90;28.00;;;;;;4871591;29;20211;-74
2021/03/23 10:22:25;;;;;;;2.03;1.65;;;36.60;28.40;;;;;;4884715;29;20218;-73
2021/03/23 10:24:54;;;;;;;2.03;1.60;;;36.20;28.10;;;;;;4889037;29;20223;-74
2021/03/23 10:27:25;;;;;;;2.80;1.65;;;35.60;28.30;;;;;;4942695;28;20700;-73
2021/03/23 10:30:03;;;;;;;1.70;1.52;;;35.10;28.50;;;;;;4955282;28;20240;-74
2021/03/23 10:32:49;;;;;;;1.95;1.30;;;34.60;28.70;;;;;;4943948;28;20561;-73
2021/03/23 10:35:24;;;;;;;1.42;1.33;;;34.30;29.00;;;;;;4936614;28;20215;-75
2021/03/23 10:38:14;;;;;;;1.98;1.77;;;34.90;28.90;;;;;;4944841;28;20224;-74
2021/03/23 10:40:42;;;;;;;1.48;1.38;;;35.60;28.60;;;;;;4941126;28;20192;-74
2021/03/23 10:43:13;;;;;;;23.35;4.57;;;36.10;28.10;;;;;;4947694;28;20206;-74
2021/03/23 10:45:43;;;;;;;22.05;4.07;;;36.50;27.90;;;;;;4937495;29;20296;-74
2021/03/23 10:48:18;;;;;;;3.20;1.67;;;36.90;27.60;;;;;;4950136;28;20232;-73
2021/03/23 10:51:06;;;;;;;3.30;1.90;;;36.90;27.30;;;;;;4931848;29;20205;-72
2021/03/23 10:53:33;;;;;;;7.20;3.20;;;37.20;27.30;;;;;;4945359;28;20200;-73
2021/03/23 10:55:59;;;;;;;20.27;4.90;;;36.90;27.20;;;;;;4942694;28;20237;-74
2021/03/23 10:58:27;;;;;;;48.60;7.95;;;35.80;26.70;;;;;;4945721;28;20577;-73
2021/03/23 11:01:14;;;;;;;2.60;1.73;;;35.10;27.40;;;;;;4937883;29;20193;-73
2021/03/23 11:03:43;;;;;;;1.83;1.70;;;35.50;27.70;;;;;;4947296;28;20225;-74
2021/03/23 11:06:26;;;;;;;5.32;2.00;;;35.90;27.60;;;;;;4938746;28;20201;-74
2021/03/23 11:08:52;;;;;;;2.67;1.80;;;35.60;27.20;;;;;;4933635;28;20200;-74
2021/03/23 11:11:19;;;;;;;2.65;1.42;;;35.00;27.60;;;;;;4942762;28;20558;-73
2021/03/23 11:13:45;;;;;;;4.75;2.03;;;34.70;27.50;;;;;;4946542;28;20200;-75
2021/03/23 11:16:18;;;;;;;3.08;1.55;;;34.40;27.10;;;;;;4941315;28;20201;-75
2021/03/23 11:18:46;;;;;;;3.35;1.60;;;34.10;27.00;;;;;;4940859;28;20684;-72
2021/03/23 11:21:15;;;;;;;3.85;1.42;;;34.00;27.30;;;;;;4946336;28;20201;-75
2021/03/23 11:23:44;;;;;;;3.70;1.52;;;33.80;26.90;;;;;;4945388;28;20580;-74
2021/03/23 11:26:13;;;;;;;2.95;1.83;;;33.70;27.20;;;;;;4946516;28;20235;-75
2021/03/23 11:28:40;;;;;;;2.47;1.48;;;33.40;27.20;;;;;;4940839;29;20193;-74
2021/03/23 11:31:09;;;;;;;4.25;1.50;;;33.00;27.60;;;;;;4937617;28;20311;-74
2021/03/23 11:33:37;;;;;;;3.55;1.85;;;33.00;27.90;;;;;;4941526;28;20205;-73
2021/03/23 11:36:04;;;;;;;2.15;1.63;;;32.60;27.60;;;;;;4942043;28;20204;-74
2021/03/23 11:38:31;;;;;;;3.78;1.67;;;32.30;27.90;;;;;;4944130;28;20221;-74
2021/03/23 11:41:00;;;;;;;2.05;1.80;;;32.00;28.20;;;;;;4946952;28;20267;-73
2021/03/23 11:43:30;;;;;;;2.30;1.58;;;31.80;28.40;;;;;;4940929;28;20210;-74
2021/03/23 11:46:04;;;;;;;1.42;1.33;;;31.60;28.60;;;;;;4946094;28;20267;-72
2021/03/23 11:48:35;;;;;;;3.88;1.60;;;31.50;28.90;;;;;;4952474;28;20205;-74
2021/03/23 11:51:03;;;;;;;2.38;1.50;;;31.30;29.10;;;;;;4942378;28;20201;-74
2021/03/23 11:53:30;;;;;;;1.42;1.27;;;31.00;29.20;;;;;;4950676;28;20192;-74
2021/03/23 11:55:59;;;;;;;310.58;46.13;;;30.60;29.40;;;;;;4951876;28;20209;-73
2021/03/23 11:58:26;;;;;;;3.10;1.88;;;30.30;29.60;;;;;;4944080;28;20250;-74
2021/03/23 12:00:53;;;;;;;24.10;4.57;;;29.70;29.70;;;;;;4942772;28;20198;-72
2021/03/23 12:03:20;;;;;;;3.42;1.77;;;28.80;30.20;;;;;;4946992;28;20205;-73
2021/03/23 12:05:47;;;;;;;3.85;1.55;;;28.10;30.80;;;;;;4942964;29;20201;-74
2021/03/23 12:08:30;;;;;;;1.50;1.40;;;27.50;31.40;;;;;;4951174;28;20289;-74
2021/03/23 12:11:09;;;;;;;3.42;1.92;;;26.90;32.00;;;;;;4946603;28;20251;-73
2021/03/23 12:13:47;;;;;;;2.95;1.20;;;26.40;32.50;;;;;;4941704;28;20664;-73
2021/03/23 12:16:29;;;;;;;3.13;1.70;;;25.80;33.00;;;;;;4936941;28;20662;-72
2021/03/23 12:19:02;;;;;;;1.65;1.20;;;25.30;33.40;;;;;;4943742;28;20193;-73
2021/03/23 12:21:29;;;;;;;2.55;1.40;;;24.80;33.80;;;;;;4954272;28;20288;-72
2021/03/23 12:23:59;;;;;;;1.73;1.30;;;24.40;34.20;;;;;;4947010;28;20209;-73
2021/03/23 12:26:27;;;;;;;3.45;1.70;;;24.00;34.60;;;;;;4945912;28;20204;-73
2021/03/23 12:28:53;;;;;;;1.13;1.08;;;23.60;35.00;;;;;;4944225;28;20812;-73
2021/03/23 12:31:20;;;;;;;1.50;1.40;;;23.10;35.40;;;;;;4937303;29;20261;-73
2021/03/23 12:33:47;;;;;;;1.02;1.00;;;22.80;35.70;;;;;;4949941;28;20641;-74
2021/03/23 12:36:15;;;;;;;2.08;1.50;;;22.50;35.90;;;;;;4948799;28;20566;-74
2021/03/23 12:38:45;;;;;;;3.20;1.42;;;22.10;36.10;;;;;;4937480;28;20292;-73
2021/03/23 12:41:15;;;;;;;3.10;1.52;;;21.70;36.60;;;;;;4937028;28;20206;-72
2021/03/23 12:43:42;;;;;;;1.50;1.33;;;21.10;37.00;;;;;;4933694;28;20209;-73
2021/03/23 12:46:10;;;;;;;2.75;1.38;;;20.70;37.30;;;;;;4936800;28;20229;-73
2021/03/23 12:48:38;;;;;;;2.90;1.50;;;20.40;37.70;;;;;;4949380;28;20202;-74
2021/03/23 12:51:05;;;;;;;3.47;1.25;;;20.10;38.20;;;;;;4953716;28;20251;-72
2021/03/23 12:53:33;;;;;;;2.47;1.30;;;19.80;38.50;;;;;;4940596;28;20193;-72
2021/03/23 12:56:00;;;;;;;1.67;1.40;;;19.50;39.00;;;;;;4949457;28;20194;-75
2021/03/23 12:58:33;;;;;;;1.50;1.40;;;19.20;39.60;;;;;;4964327;28;20220;-72
2021/03/23 13:01:00;;;;;;;1.55;1.45;;;18.90;39.80;;;;;;4935739;29;20244;-74
2021/03/23 13:03:27;;;;;;;1.45;1.10;;;18.70;40.10;;;;;;4947135;28;20189;-72
2021/03/23 13:05:54;;;;;;;3.05;1.42;;;18.40;40.30;;;;;;4942255;28;20209;-73
2021/03/23 13:08:28;;;;;;;1.75;1.13;;;18.30;40.60;;;;;;4962322;28;20203;-72
2021/03/23 13:11:07;;;;;;;1.17;1.08;;;18.10;40.80;;;;;;4949221;28;20580;-73
2021/03/23 13:13:42;;;;;;;1.15;1.05;;;18.00;41.20;;;;;;4951662;28;20196;-73
2021/03/23 13:16:08;;;;;;;1.45;1.10;;;17.80;41.30;;;;;;4941929;28;20235;-73